createdAt,value
2019-05-06T00:01:14.984Z,4.20
2019-05-06T00:03:44.208Z,4.30
2019-05-06T00:06:14.530Z,4.10
2019-05-06T00:08:44.032Z,4.20
2019-05-06T00:11:14.167Z,4.30
2019-05-06T00:13:44.554Z,4.20
2019-05-06T00:16:14.391Z,4.20
2019-05-06T00:18:44.909Z,4.20
2019-05-06T00:21:14.791Z,4.20
2019-05-06T00:23:54.607Z,4.10
2019-05-06T00:26:41.645Z,4.20
2019-05-06T00:29:14.206Z,4.20
2019-05-06T00:31:43.998Z,4.20
2019-05-06T00:34:13.903Z,4.20
2019-05-06T00:36:43.689Z,4.30
2019-05-06T00:39:33.682Z,4.20
2019-05-06T00:42:24.793Z,4.20
2019-05-06T00:44:53.826Z,4.20
2019-05-06T00:47:24.575Z,4.10
2019-05-06T00:49:54.576Z,4.20
2019-05-06T00:52:25.976Z,4.20
2019-05-06T00:54:54.876Z,4.20
2019-05-06T00:57:43.872Z,4.10
2019-05-06T01:00:16.749Z,4.10
2019-05-06T01:02:45.886Z,4.20
2019-05-06T01:05:15.425Z,4.20
2019-05-06T01:07:44.484Z,4.20
2019-05-06T01:10:15.078Z,4.10
2019-05-06T01:12:50.606Z,4.10
2019-05-06T01:15:21.196Z,4.20
2019-05-06T01:17:50.186Z,4.20
2019-05-06T01:20:19.277Z,4.20
2019-05-06T01:22:48.130Z,4.30
2019-05-06T01:25:17.195Z,4.30
2019-05-06T01:27:46.133Z,4.30
2019-05-06T01:30:15.614Z,4.30
2019-05-06T01:32:44.530Z,4.20
2019-05-06T01:35:14.058Z,4.20
2019-05-06T01:37:44.861Z,4.30
2019-05-06T01:40:25.467Z,4.20
2019-05-06T01:42:59.694Z,4.30
2019-05-06T01:45:28.689Z,4.40
2019-05-06T01:47:57.683Z,4.40
2019-05-06T01:50:26.666Z,4.40
2019-05-06T01:52:55.682Z,4.40
2019-05-06T01:55:24.670Z,4.50
2019-05-06T01:57:54.569Z,4.40
2019-05-06T02:00:23.847Z,4.40
2019-05-06T02:02:54.705Z,4.50
2019-05-06T02:05:24.246Z,4.50
2019-05-06T02:07:55.021Z,4.50
2019-05-06T02:10:24.146Z,4.50
2019-05-06T02:12:54.033Z,4.50
2019-05-06T02:15:23.895Z,4.50
2019-05-06T02:17:54.976Z,4.50
2019-05-06T02:20:24.624Z,4.50
2019-05-06T02:23:07.171Z,4.50
2019-05-06T02:25:40.443Z,4.50
2019-05-06T02:28:09.353Z,4.50
2019-05-06T02:31:15.631Z,4.60
2019-05-06T02:34:04.930Z,4.60
2019-05-06T02:37:06.239Z,4.70
2019-05-06T02:39:34.957Z,4.70
2019-05-06T02:42:04.517Z,4.70
2019-05-06T02:44:33.789Z,4.70
2019-05-06T02:47:13.905Z,4.70
2019-05-06T02:49:47.285Z,4.70
2019-05-06T02:52:16.281Z,4.80
2019-05-06T02:54:45.221Z,4.80
2019-05-06T02:57:14.173Z,4.80
2019-05-06T02:59:44.240Z,4.90
2019-05-06T03:02:14.265Z,4.90
2019-05-06T03:04:43.881Z,5.00
2019-05-06T03:07:14.533Z,5.00
2019-05-06T03:09:44.514Z,5.00
2019-05-06T03:12:14.066Z,5.00
2019-05-06T03:14:43.861Z,4.90
2019-05-06T03:17:14.013Z,4.90
2019-05-06T03:19:45.987Z,4.80
2019-05-06T03:22:43.222Z,4.90
2019-05-06T03:25:14.113Z,5.00
2019-05-06T03:27:46.847Z,5.00
2019-05-06T03:30:16.416Z,5.00
2019-05-06T03:33:18.679Z,5.00
2019-05-06T03:35:33.379Z,5.10
2019-05-06T03:37:46.977Z,5.00
2019-05-06T03:40:16.364Z,5.10
2019-05-06T03:42:45.217Z,5.10
2019-05-06T03:45:24.957Z,5.10
2019-05-06T03:48:05.467Z,5.00
2019-05-06T03:50:33.497Z,5.10
2019-05-06T03:53:03.226Z,5.10
2019-05-06T03:55:34.390Z,5.00
2019-05-06T03:58:04.200Z,5.00
2019-05-06T04:00:34.982Z,5.00
2019-05-06T04:03:03.997Z,5.00
2019-05-06T04:05:33.615Z,5.10
2019-05-06T04:08:04.017Z,5.10
2019-05-06T04:10:36.910Z,5.10
2019-05-06T04:13:06.941Z,5.10
2019-05-06T04:16:13.770Z,5.10
2019-05-06T04:18:46.357Z,5.10
2019-05-06T04:21:24.033Z,5.10
2019-05-06T04:24:04.522Z,5.20
2019-05-06T04:27:04.718Z,5.30
2019-05-06T04:29:35.616Z,5.30
2019-05-06T04:32:05.326Z,5.20
2019-05-06T04:34:34.396Z,5.20
2019-05-06T04:37:03.770Z,5.30
2019-05-06T04:39:33.205Z,5.40
2019-05-06T04:42:03.472Z,5.40
2019-05-06T04:44:33.184Z,5.50
2019-05-06T04:47:05.462Z,5.50
2019-05-06T04:49:34.286Z,5.60
2019-05-06T04:52:03.781Z,5.60
2019-05-06T04:54:33.657Z,5.60
2019-05-06T04:57:05.154Z,5.70
2019-05-06T04:59:34.431Z,5.70
2019-05-06T05:02:03.545Z,5.70
2019-05-06T05:04:36.597Z,5.70
2019-05-06T05:07:04.347Z,5.70
2019-05-06T05:09:33.262Z,5.80
2019-05-06T05:12:09.080Z,5.90
2019-05-06T05:14:47.301Z,5.90
2019-05-06T05:17:53.819Z,6.00
2019-05-06T05:20:36.533Z,6.00
2019-05-06T05:22:53.485Z,6.10
2019-05-06T05:25:22.683Z,6.20
2019-05-06T05:27:52.842Z,6.20
2019-05-06T05:30:22.119Z,6.30
2019-05-06T05:32:52.106Z,6.30
2019-05-06T05:35:22.700Z,6.40
2019-05-06T05:37:52.916Z,6.40
2019-05-06T05:40:22.559Z,6.40
2019-05-06T05:42:59.838Z,6.50
2019-05-06T05:45:29.020Z,6.60
2019-05-06T05:48:00.394Z,6.70
2019-05-06T05:50:38.651Z,6.70
2019-05-06T05:53:07.703Z,6.80
2019-05-06T05:55:36.819Z,6.90
2019-05-06T05:58:06.255Z,7.00
2019-05-06T06:00:36.023Z,7.10
2019-05-06T06:03:07.143Z,7.20
2019-05-06T06:05:35.876Z,7.10
2019-05-06T06:08:04.877Z,7.20
2019-05-06T06:11:05.345Z,7.20
2019-05-06T06:13:34.510Z,7.30
2019-05-06T06:16:20.338Z,7.50
2019-05-06T06:19:08.895Z,7.50
2019-05-06T06:21:44.194Z,7.60
2019-05-06T06:24:26.381Z,7.70
2019-05-06T06:26:55.388Z,7.90
2019-05-06T06:29:24.390Z,7.80
2019-05-06T06:32:13.737Z,7.80
2019-05-06T06:35:07.163Z,7.80
2019-05-06T06:37:33.910Z,8.10
2019-05-06T06:40:03.073Z,8.20
2019-05-06T06:42:33.502Z,8.60
2019-05-06T06:45:03.589Z,9.20
2019-05-06T06:47:32.861Z,9.90
2019-05-06T06:50:02.794Z,10.30
2019-05-06T06:52:32.621Z,10.80
2019-05-06T06:55:02.644Z,11.30
2019-05-06T06:57:39.221Z,11.70
2019-05-06T07:00:26.292Z,12.00
2019-05-06T07:03:09.122Z,12.20
2019-05-06T07:05:56.465Z,12.30
2019-05-06T07:08:36.500Z,12.30
2019-05-06T07:10:56.203Z,12.20
2019-05-06T07:13:25.214Z,12.30
2019-05-06T07:15:54.311Z,12.20
2019-05-06T07:18:23.336Z,12.20
2019-05-06T07:21:23.512Z,12.30
2019-05-06T07:23:53.039Z,12.20
2019-05-06T07:26:24.165Z,12.40
2019-05-06T07:28:53.193Z,12.30
2019-05-06T07:31:26.347Z,12.10
2019-05-06T07:33:53.096Z,11.90
2019-05-06T07:36:22.841Z,11.90
2019-05-06T07:38:52.875Z,12.10
2019-05-06T07:41:28.166Z,12.40
2019-05-06T07:44:14.242Z,12.40
2019-05-06T07:46:54.541Z,12.30
2019-05-06T07:49:23.754Z,12.40
2019-05-06T07:51:53.050Z,12.40
2019-05-06T07:54:22.315Z,12.50
2019-05-06T07:56:52.708Z,12.60
2019-05-06T07:59:22.490Z,12.60
2019-05-06T08:01:53.848Z,12.50
2019-05-06T08:04:23.047Z,12.40
2019-05-06T08:06:52.347Z,12.20
2019-05-06T08:09:22.135Z,12.20
2019-05-06T08:11:53.085Z,12.20
2019-05-06T08:14:22.606Z,12.40
2019-05-06T08:16:59.445Z,13.10
2019-05-06T08:19:28.526Z,13.90
2019-05-06T08:21:59.173Z,14.40
2019-05-06T08:24:28.220Z,14.80
2019-05-06T08:26:57.222Z,15.50
2019-05-06T08:29:26.246Z,15.70
2019-05-06T08:31:55.345Z,15.70
2019-05-06T08:34:24.256Z,16.40
2019-05-06T08:37:07.765Z,16.70
2019-05-06T08:39:36.766Z,17.20
2019-05-06T08:42:05.840Z,17.70
2019-05-06T08:44:34.840Z,18.10
2019-05-06T08:47:03.906Z,18.40
2019-05-06T08:49:52.791Z,18.50
2019-05-06T08:52:24.385Z,18.40
2019-05-06T08:54:55.229Z,18.20
2019-05-06T08:57:24.285Z,17.60
2019-05-06T08:59:53.728Z,17.60
2019-05-06T09:02:23.952Z,17.50
2019-05-06T09:04:53.138Z,17.20
2019-05-06T09:07:23.873Z,16.80
2019-05-06T09:09:52.960Z,16.70
2019-05-06T09:12:22.368Z,16.30
2019-05-06T09:14:53.263Z,16.00
2019-05-06T09:17:22.664Z,15.80
2019-05-06T09:19:53.481Z,15.40
2019-05-06T09:22:23.492Z,15.50
2019-05-06T09:24:53.191Z,15.20
2019-05-06T09:27:42.153Z,15.20
2019-05-06T09:30:16.450Z,15.00
2019-05-06T09:32:45.441Z,14.90
2019-05-06T09:35:14.552Z,14.30
2019-05-06T09:37:43.691Z,14.00
2019-05-06T09:40:12.812Z,14.00
2019-05-06T09:42:42.562Z,14.10
2019-05-06T09:45:12.488Z,14.20
2019-05-06T09:47:53.195Z,14.40
2019-05-06T09:50:45.510Z,14.70
2019-05-06T09:53:16.555Z,15.00
2019-05-06T09:56:16.994Z,15.30
2019-05-06T09:58:46.030Z,15.70
2019-05-06T10:01:16.463Z,15.30
2019-05-06T10:03:45.731Z,15.30
2019-05-06T10:06:14.901Z,15.50
2019-05-06T10:08:44.154Z,15.80
2019-05-06T10:11:13.093Z,16.20
2019-05-06T10:13:43.112Z,16.40
2019-05-06T10:16:13.000Z,16.60
2019-05-06T10:18:42.187Z,16.80
2019-05-06T10:21:12.525Z,16.60
2019-05-06T10:23:42.326Z,16.60
2019-05-06T10:26:12.973Z,16.60
2019-05-06T10:28:47.281Z,16.40
2019-05-06T10:31:17.879Z,16.50
2019-05-06T10:34:04.824Z,16.40
2019-05-06T10:36:42.694Z,16.40
2019-05-06T10:39:13.359Z,16.70
2019-05-06T10:41:45.533Z,16.90
2019-05-06T10:44:35.395Z,16.70
2019-05-06T10:47:04.496Z,16.60
2019-05-06T10:49:33.808Z,16.50
2019-05-06T10:52:12.576Z,16.30
2019-05-06T10:54:42.104Z,15.90
2019-05-06T10:57:32.633Z,15.60
2019-05-06T11:00:01.267Z,15.90
2019-05-06T11:02:49.361Z,15.90
2019-05-06T11:05:18.615Z,16.00
2019-05-06T11:07:47.610Z,16.00
2019-05-06T11:10:23.878Z,15.60
2019-05-06T11:12:47.351Z,15.70
2019-05-06T11:15:16.451Z,15.60
2019-05-06T11:17:45.490Z,15.50
2019-05-06T11:20:14.599Z,15.20
2019-05-06T11:22:43.777Z,15.30
2019-05-06T11:25:13.578Z,15.20
2019-05-06T11:27:45.034Z,15.30
2019-05-06T11:30:24.787Z,15.20
2019-05-06T11:33:04.766Z,15.00
2019-05-06T11:35:54.357Z,14.80
2019-05-06T11:38:23.409Z,15.00
2019-05-06T11:40:53.160Z,14.90
2019-05-06T11:43:22.859Z,14.80
2019-05-06T11:45:52.235Z,14.70
2019-05-06T11:48:22.324Z,14.80
2019-05-06T11:50:53.558Z,14.80
2019-05-06T11:53:23.130Z,14.90
2019-05-06T11:55:54.662Z,14.70
2019-05-06T11:58:46.370Z,14.70
2019-05-06T12:01:22.361Z,14.90
2019-05-06T12:03:52.150Z,15.00
2019-05-06T12:06:22.692Z,14.90
2019-05-06T12:08:52.436Z,15.00
2019-05-06T12:11:23.744Z,15.00
2019-05-06T12:13:53.232Z,14.90
2019-05-06T12:16:26.202Z,14.90
2019-05-06T12:18:53.475Z,14.90
2019-05-06T12:21:23.183Z,14.90
2019-05-06T12:23:53.781Z,14.70
2019-05-06T12:26:23.117Z,14.70
2019-05-06T12:28:53.171Z,14.70
2019-05-06T12:31:23.309Z,14.70
2019-05-06T12:33:53.406Z,14.90
2019-05-06T12:36:23.490Z,14.90
2019-05-06T12:39:15.917Z,14.80
2019-05-06T12:42:04.623Z,14.80
2019-05-06T12:44:35.244Z,14.80
2019-05-06T12:47:42.705Z,14.60
2019-05-06T12:50:12.126Z,14.70
2019-05-06T12:52:44.202Z,14.70
2019-05-06T12:55:21.512Z,14.80
2019-05-06T12:57:43.273Z,14.90
2019-05-06T13:00:13.607Z,14.90
2019-05-06T13:02:43.633Z,14.40
2019-05-06T13:05:14.038Z,14.30
2019-05-06T13:07:49.156Z,14.40
2019-05-06T13:10:23.107Z,14.60
2019-05-06T13:13:00.038Z,14.90
2019-05-06T13:15:29.091Z,15.00
2019-05-06T13:17:58.025Z,14.60
2019-05-06T13:20:27.026Z,14.80
2019-05-06T13:23:08.577Z,14.90
2019-05-06T13:25:32.845Z,14.80
2019-05-06T13:28:02.118Z,14.50
2019-05-06T13:30:32.635Z,14.50
2019-05-06T13:33:08.192Z,14.60
2019-05-06T13:35:37.251Z,14.80
2019-05-06T13:38:06.186Z,14.80
2019-05-06T13:40:39.562Z,14.80
2019-05-06T13:43:23.827Z,14.90
2019-05-06T13:45:54.617Z,15.10
2019-05-06T13:48:34.969Z,15.20
2019-05-06T13:51:07.985Z,15.30
2019-05-06T13:53:40.510Z,15.30
2019-05-06T13:56:07.552Z,15.00
2019-05-06T13:58:37.007Z,14.90
2019-05-06T14:01:08.660Z,15.00
2019-05-06T14:03:37.906Z,14.90
2019-05-06T14:06:07.000Z,15.00
2019-05-06T14:08:36.010Z,15.10
2019-05-06T14:11:05.098Z,15.20
2019-05-06T14:13:33.977Z,15.20
2019-05-06T14:16:03.956Z,15.30
2019-05-06T14:18:33.807Z,15.30
2019-05-06T14:21:04.068Z,15.30
2019-05-06T14:23:33.075Z,15.30
2019-05-06T14:26:22.860Z,15.40
2019-05-06T14:28:55.478Z,15.40
2019-05-06T14:31:46.436Z,15.40
2019-05-06T14:34:15.362Z,15.40
2019-05-06T14:36:44.283Z,15.40
2019-05-06T14:39:23.978Z,15.30
2019-05-06T14:41:54.781Z,15.30
2019-05-06T14:44:23.825Z,15.40
2019-05-06T14:47:17.772Z,15.50
2019-05-06T14:49:47.285Z,15.60
2019-05-06T14:52:16.288Z,15.50
2019-05-06T14:54:53.190Z,15.50
2019-05-06T14:57:22.915Z,15.40
2019-05-06T14:59:55.226Z,15.40
2019-05-06T15:02:26.888Z,15.40
2019-05-06T15:04:56.373Z,15.30
2019-05-06T15:07:25.393Z,15.40
2019-05-06T15:10:07.847Z,15.40
2019-05-06T15:12:25.111Z,15.30
2019-05-06T15:14:54.030Z,15.20
2019-05-06T15:17:23.203Z,15.00
2019-05-06T15:19:52.840Z,14.80
2019-05-06T15:22:22.650Z,14.80
2019-05-06T15:24:53.619Z,14.90
2019-05-06T15:27:23.058Z,14.90
2019-05-06T15:29:55.234Z,14.90
2019-05-06T15:32:35.869Z,15.00
2019-05-06T15:35:35.497Z,15.10
2019-05-06T15:38:09.645Z,15.30
2019-05-06T15:40:38.729Z,15.30
2019-05-06T15:43:08.005Z,15.30
2019-05-06T15:45:37.335Z,14.90
2019-05-06T15:48:06.418Z,14.90
2019-05-06T15:50:35.349Z,14.70
2019-05-06T15:53:04.348Z,14.70
2019-05-06T15:55:33.365Z,14.80
2019-05-06T15:58:03.427Z,14.70
2019-05-06T16:00:33.243Z,14.70
2019-05-06T16:03:02.672Z,14.70
2019-05-06T16:05:34.347Z,14.70
2019-05-06T16:08:02.989Z,14.70
2019-05-06T16:10:43.243Z,14.50
2019-05-06T16:13:03.054Z,14.60
2019-05-06T16:15:33.510Z,14.70
2019-05-06T16:18:04.427Z,14.40
2019-05-06T16:20:34.005Z,14.20
2019-05-06T16:23:13.012Z,14.30
2019-05-06T16:25:42.321Z,14.40
2019-05-06T16:28:13.009Z,14.60
2019-05-06T16:30:42.744Z,14.60
2019-05-06T16:33:12.209Z,14.50
2019-05-06T16:35:42.684Z,14.60
2019-05-06T16:38:13.121Z,14.60
2019-05-06T16:40:45.160Z,14.60
2019-05-06T16:43:12.858Z,14.50
2019-05-06T16:45:42.813Z,14.50
2019-05-06T16:48:13.032Z,14.60
2019-05-06T16:50:42.930Z,14.50
2019-05-06T16:53:12.294Z,14.40
2019-05-06T16:56:02.358Z,14.30
2019-05-06T16:58:34.205Z,14.20
2019-05-06T17:01:03.426Z,14.20
2019-05-06T17:03:44.702Z,14.20
2019-05-06T17:06:32.969Z,14.20
2019-05-06T17:09:16.904Z,14.00
2019-05-06T17:11:34.695Z,13.90
2019-05-06T17:14:04.206Z,14.00
2019-05-06T17:16:34.132Z,13.80
2019-05-06T17:19:03.536Z,13.80
2019-05-06T17:21:33.347Z,13.80
2019-05-06T17:24:02.585Z,13.70
2019-05-06T17:26:33.681Z,13.70
2019-05-06T17:29:09.239Z,13.60
2019-05-06T17:31:56.242Z,13.60
2019-05-06T17:34:29.586Z,13.50
2019-05-06T17:37:03.441Z,13.40
2019-05-06T17:39:32.878Z,13.30
2019-05-06T17:42:02.147Z,13.00
2019-05-06T17:44:32.665Z,13.00
2019-05-06T17:47:12.260Z,12.90
2019-05-06T17:49:42.227Z,12.80
2019-05-06T17:52:22.307Z,12.70
2019-05-06T17:54:52.770Z,12.40
2019-05-06T17:57:23.192Z,12.50
2019-05-06T17:59:52.838Z,12.40
2019-05-06T18:02:23.995Z,12.40
2019-05-06T18:04:53.471Z,12.30
2019-05-06T18:07:22.534Z,12.20
2019-05-06T18:09:52.216Z,12.20
2019-05-06T18:12:23.159Z,12.20
2019-05-06T18:14:53.408Z,12.20
2019-05-06T18:17:22.774Z,12.10
2019-05-06T18:19:52.031Z,11.90
2019-05-06T18:22:22.720Z,11.80
2019-05-06T18:24:52.581Z,11.70
2019-05-06T18:27:22.668Z,11.60
2019-05-06T18:29:53.233Z,11.50
2019-05-06T18:32:23.425Z,11.50
2019-05-06T18:34:52.827Z,11.50
2019-05-06T18:37:23.360Z,11.50
2019-05-06T18:39:53.128Z,11.40
2019-05-06T18:42:23.661Z,11.40
2019-05-06T18:44:53.164Z,11.20
2019-05-06T18:47:22.232Z,11.00
2019-05-06T18:49:52.301Z,10.90
2019-05-06T18:52:22.918Z,10.90
2019-05-06T18:54:52.884Z,10.80
2019-05-06T18:57:22.761Z,10.60
2019-05-06T18:59:53.421Z,10.60
2019-05-06T19:02:23.030Z,10.60
2019-05-06T19:05:05.338Z,10.60
2019-05-06T19:07:34.382Z,10.60
2019-05-06T19:10:07.397Z,10.40
2019-05-06T19:12:40.421Z,10.30
2019-05-06T19:15:07.953Z,10.30
2019-05-06T19:17:37.106Z,10.20
2019-05-06T19:20:06.379Z,10.20
2019-05-06T19:22:35.405Z,10.20
2019-05-06T19:25:04.647Z,10.30
2019-05-06T19:27:34.191Z,10.20
2019-05-06T19:30:03.443Z,10.20
2019-05-06T19:32:35.297Z,10.10
2019-05-06T19:35:04.796Z,10.00
2019-05-06T19:37:33.806Z,9.90
2019-05-06T19:40:03.054Z,9.90
2019-05-06T19:42:45.727Z,9.90
2019-05-06T19:45:03.464Z,9.90
2019-05-06T19:47:34.168Z,9.90
2019-05-06T19:50:03.561Z,9.80
2019-05-06T19:52:35.041Z,9.70
2019-05-06T19:55:04.762Z,9.60
2019-05-06T19:57:33.829Z,9.60
2019-05-06T20:00:03.340Z,9.40
2019-05-06T20:02:32.558Z,9.30
2019-05-06T20:05:05.886Z,9.30
2019-05-06T20:08:00.056Z,9.40
2019-05-06T20:10:52.871Z,9.40
2019-05-06T20:13:23.273Z,9.40
2019-05-06T20:15:52.621Z,9.30
2019-05-06T20:18:21.728Z,9.10
2019-05-06T20:20:52.683Z,9.10
2019-05-06T20:23:23.621Z,9.00
2019-05-06T20:25:52.631Z,9.00
2019-05-06T20:28:22.727Z,8.90
2019-05-06T20:30:52.867Z,8.80
2019-05-06T20:33:24.104Z,8.60
2019-05-06T20:35:53.035Z,8.70
2019-05-06T20:38:23.156Z,8.80
2019-05-06T20:40:52.370Z,8.80
2019-05-06T20:43:24.066Z,8.70
2019-05-06T20:45:52.350Z,8.70
2019-05-06T20:48:23.507Z,8.70
2019-05-06T20:50:52.431Z,8.60
2019-05-06T20:53:23.246Z,8.50
2019-05-06T20:55:53.231Z,8.50
2019-05-06T20:58:22.956Z,8.50
2019-05-06T21:00:52.339Z,8.60
2019-05-06T21:03:22.166Z,8.60
2019-05-06T21:05:52.109Z,8.60
2019-05-06T21:08:22.141Z,8.60
2019-05-06T21:10:52.933Z,8.50
2019-05-06T21:13:31.771Z,8.30
2019-05-06T21:15:52.875Z,8.40
2019-05-06T21:18:22.919Z,8.40
2019-05-06T21:20:52.109Z,8.30
2019-05-06T21:23:22.698Z,8.30
2019-05-06T21:25:52.378Z,8.20
2019-05-06T21:28:23.707Z,8.20
2019-05-06T21:30:52.387Z,8.20
2019-05-06T21:33:22.169Z,8.20
2019-05-06T21:35:52.260Z,8.20
2019-05-06T21:38:22.699Z,8.20
2019-05-06T21:40:52.614Z,8.20
2019-05-06T21:43:22.693Z,8.10
2019-05-06T21:45:53.957Z,8.00
2019-05-06T21:48:22.787Z,7.90
2019-05-06T21:50:52.287Z,7.90
2019-05-06T21:53:23.074Z,7.80
2019-05-06T21:55:52.578Z,7.70
2019-05-06T21:58:23.172Z,7.80
2019-05-06T22:01:02.147Z,7.60
2019-05-06T22:03:32.754Z,7.60
2019-05-06T22:06:02.222Z,7.60
2019-05-06T22:08:32.834Z,7.60
2019-05-06T22:11:02.974Z,7.60
2019-05-06T22:13:33.231Z,7.50
2019-05-06T22:16:04.819Z,7.40
2019-05-06T22:18:33.281Z,7.40
2019-05-06T22:21:09.484Z,7.30
2019-05-06T22:23:58.423Z,7.10
2019-05-06T22:26:28.494Z,6.90
2019-05-06T22:28:57.662Z,6.80
2019-05-06T22:31:27.149Z,6.80
2019-05-06T22:33:56.193Z,6.70
2019-05-06T22:36:25.291Z,6.50
2019-05-06T22:38:54.655Z,6.30
2019-05-06T22:41:25.437Z,6.30
2019-05-06T22:43:54.319Z,6.20
2019-05-06T22:46:23.654Z,6.10
2019-05-06T22:48:54.507Z,6.10
2019-05-06T22:51:23.678Z,6.00
2019-05-06T22:53:53.347Z,6.00
2019-05-06T22:56:23.091Z,6.00
2019-05-06T22:58:52.556Z,5.90
2019-05-06T23:01:45.949Z,5.70
2019-05-06T23:04:16.257Z,5.60
2019-05-06T23:06:45.257Z,5.50
2019-05-06T23:09:14.268Z,5.50
2019-05-06T23:11:43.279Z,5.50
2019-05-06T23:14:13.814Z,5.50
2019-05-06T23:16:43.037Z,5.40
2019-05-06T23:19:12.053Z,5.20
2019-05-06T23:21:43.104Z,5.20
2019-05-06T23:24:13.118Z,5.20
2019-05-06T23:26:42.257Z,5.20
2019-05-06T23:29:12.944Z,5.10
2019-05-06T23:31:42.599Z,5.20
2019-05-06T23:34:12.515Z,5.10
2019-05-06T23:37:23.001Z,5.00
2019-05-06T23:40:39.349Z,5.00
2019-05-06T23:43:44.453Z,4.80
2019-05-06T23:46:49.632Z,4.60
2019-05-06T23:49:54.317Z,4.50
2019-05-06T23:52:59.104Z,4.40
2019-05-06T23:56:04.288Z,4.50
2019-05-06T23:58:33.374Z,4.50
